sensor_id;sensor_type;location;lat;lon;timestamp;temperature;humidity
5226;DHT22;2632;51.666;7.146;2022-10-16T00:01:26;16.90;91.70
5226;DHT22;2632;51.666;7.146;2022-10-16T00:03:54;16.90;91.90
5226;DHT22;2632;51.666;7.146;2022-10-16T00:06:21;16.90;91.70
5226;DHT22;2632;51.666;7.146;2022-10-16T00:08:49;16.90;91.90
5226;DHT22;2632;51.666;7.146;2022-10-16T00:11:18;16.80;91.90
5226;DHT22;2632;51.666;7.146;2022-10-16T00:13:47;16.90;91.90
5226;DHT22;2632;51.666;7.146;2022-10-16T00:16:13;16.90;91.90
5226;DHT22;2632;51.666;7.146;2022-10-16T00:18:41;16.90;91.90
5226;DHT22;2632;51.666;7.146;2022-10-16T00:21:11;16.80;91.90
5226;DHT22;2632;51.666;7.146;2022-10-16T00:23:39;16.90;91.90
5226;DHT22;2632;51.666;7.146;2022-10-16T00:26:09;16.90;91.90
5226;DHT22;2632;51.666;7.146;2022-10-16T00:28:36;16.90;91.90
5226;DHT22;2632;51.666;7.146;2022-10-16T00:31:08;16.90;91.80
5226;DHT22;2632;51.666;7.146;2022-10-16T00:33:36;16.90;91.80
5226;DHT22;2632;51.666;7.146;2022-10-16T00:36:04;16.90;91.90
5226;DHT22;2632;51.666;7.146;2022-10-16T00:38:31;16.90;91.80
5226;DHT22;2632;51.666;7.146;2022-10-16T00:40:58;16.90;91.80
5226;DHT22;2632;51.666;7.146;2022-10-16T00:48:48;16.90;91.90
5226;DHT22;2632;51.666;7.146;2022-10-16T00:51:15;16.90;91.90
5226;DHT22;2632;51.666;7.146;2022-10-16T00:53:43;16.90;91.80
5226;DHT22;2632;51.666;7.146;2022-10-16T00:56:10;16.90;91.80
5226;DHT22;2632;51.666;7.146;2022-10-16T00:58:37;16.90;91.60
5226;DHT22;2632;51.666;7.146;2022-10-16T01:01:04;16.90;91.80
5226;DHT22;2632;51.666;7.146;2022-10-16T01:03:34;16.90;91.80
5226;DHT22;2632;51.666;7.146;2022-10-16T01:06:04;16.90;91.80
5226;DHT22;2632;51.666;7.146;2022-10-16T01:08:43;16.90;91.80
5226;DHT22;2632;51.666;7.146;2022-10-16T01:11:40;16.80;91.80
5226;DHT22;2632;51.666;7.146;2022-10-16T01:14:27;16.90;91.80
5226;DHT22;2632;51.666;7.146;2022-10-16T01:17:02;16.90;91.80
5226;DHT22;2632;51.666;7.146;2022-10-16T01:19:56;16.80;91.80
5226;DHT22;2632;51.666;7.146;2022-10-16T01:22:39;16.80;91.80
5226;DHT22;2632;51.666;7.146;2022-10-16T01:25:11;16.90;91.80
5226;DHT22;2632;51.666;7.146;2022-10-16T01:27:41;16.90;91.60
5226;DHT22;2632;51.666;7.146;2022-10-16T01:30:12;16.80;91.80
5226;DHT22;2632;51.666;7.146;2022-10-16T01:32:56;16.90;91.80
5226;DHT22;2632;51.666;7.146;2022-10-16T01:35:36;16.80;91.50
5226;DHT22;2632;51.666;7.146;2022-10-16T01:40:39;16.90;91.50
5226;DHT22;2632;51.666;7.146;2022-10-16T01:43:10;16.90;91.80
5226;DHT22;2632;51.666;7.146;2022-10-16T01:45:39;16.80;91.70
5226;DHT22;2632;51.666;7.146;2022-10-16T01:48:09;16.80;91.70
5226;DHT22;2632;51.666;7.146;2022-10-16T01:50:40;16.80;91.50
5226;DHT22;2632;51.666;7.146;2022-10-16T01:53:10;16.90;91.80
5226;DHT22;2632;51.666;7.146;2022-10-16T01:55:44;16.80;91.70
5226;DHT22;2632;51.666;7.146;2022-10-16T01:58:13;16.90;91.70
5226;DHT22;2632;51.666;7.146;2022-10-16T02:00:45;16.80;91.70
5226;DHT22;2632;51.666;7.146;2022-10-16T02:03:16;16.90;91.70
5226;DHT22;2632;51.666;7.146;2022-10-16T02:05:50;16.80;91.70
5226;DHT22;2632;51.666;7.146;2022-10-16T02:08:18;16.90;91.50
5226;DHT22;2632;51.666;7.146;2022-10-16T02:10:45;16.80;91.70
5226;DHT22;2632;51.666;7.146;2022-10-16T02:13:18;16.90;91.70
5226;DHT22;2632;51.666;7.146;2022-10-16T02:15:47;16.90;91.70
5226;DHT22;2632;51.666;7.146;2022-10-16T02:18:14;16.90;91.70
5226;DHT22;2632;51.666;7.146;2022-10-16T02:20:51;16.90;91.70
5226;DHT22;2632;51.666;7.146;2022-10-16T02:23:35;16.90;91.70
5226;DHT22;2632;51.666;7.146;2022-10-16T02:26:05;16.90;91.70
5226;DHT22;2632;51.666;7.146;2022-10-16T02:28:55;16.80;91.70
5226;DHT22;2632;51.666;7.146;2022-10-16T02:31:28;16.90;91.70
5226;DHT22;2632;51.666;7.146;2022-10-16T02:33:58;16.90;91.70
5226;DHT22;2632;51.666;7.146;2022-10-16T02:36:27;16.90;91.70
5226;DHT22;2632;51.666;7.146;2022-10-16T02:38:53;16.80;91.70
5226;DHT22;2632;51.666;7.146;2022-10-16T02:41:21;16.80;91.70
5226;DHT22;2632;51.666;7.146;2022-10-16T02:43:49;16.90;91.70
5226;DHT22;2632;51.666;7.146;2022-10-16T02:46:17;16.80;91.70
5226;DHT22;2632;51.666;7.146;2022-10-16T02:48:44;16.80;91.70
5226;DHT22;2632;51.666;7.146;2022-10-16T02:51:11;16.90;91.70
5226;DHT22;2632;51.666;7.146;2022-10-16T02:53:37;16.80;91.70
5226;DHT22;2632;51.666;7.146;2022-10-16T02:56:04;16.80;91.60
5226;DHT22;2632;51.666;7.146;2022-10-16T02:58:30;16.90;91.70
5226;DHT22;2632;51.666;7.146;2022-10-16T03:00:57;16.80;91.70
5226;DHT22;2632;51.666;7.146;2022-10-16T03:03:24;16.80;91.70
5226;DHT22;2632;51.666;7.146;2022-10-16T03:05:50;16.80;91.70
5226;DHT22;2632;51.666;7.146;2022-10-16T03:08:17;16.90;91.70
5226;DHT22;2632;51.666;7.146;2022-10-16T03:10:45;16.80;91.60
5226;DHT22;2632;51.666;7.146;2022-10-16T03:13:11;16.80;91.70
5226;DHT22;2632;51.666;7.146;2022-10-16T03:15:38;16.80;91.70
5226;DHT22;2632;51.666;7.146;2022-10-16T03:18:04;16.80;91.60
5226;DHT22;2632;51.666;7.146;2022-10-16T03:20:31;16.90;91.70
5226;DHT22;2632;51.666;7.146;2022-10-16T03:22:58;16.80;91.60
5226;DHT22;2632;51.666;7.146;2022-10-16T03:25:24;16.80;91.60
5226;DHT22;2632;51.666;7.146;2022-10-16T03:27:51;16.80;91.40
5226;DHT22;2632;51.666;7.146;2022-10-16T03:30:18;16.80;91.40
5226;DHT22;2632;51.666;7.146;2022-10-16T03:32:45;16.80;91.60
5226;DHT22;2632;51.666;7.146;2022-10-16T03:35:11;16.80;91.60
5226;DHT22;2632;51.666;7.146;2022-10-16T03:37:38;16.80;91.60
5226;DHT22;2632;51.666;7.146;2022-10-16T03:40:05;16.80;91.60
5226;DHT22;2632;51.666;7.146;2022-10-16T03:42:32;16.80;91.40
5226;DHT22;2632;51.666;7.146;2022-10-16T03:44:59;16.80;91.60
5226;DHT22;2632;51.666;7.146;2022-10-16T03:47:25;16.90;91.60
5226;DHT22;2632;51.666;7.146;2022-10-16T03:49:52;16.80;91.60
5226;DHT22;2632;51.666;7.146;2022-10-16T03:52:19;16.80;91.60
5226;DHT22;2632;51.666;7.146;2022-10-16T03:54:45;16.80;91.60
5226;DHT22;2632;51.666;7.146;2022-10-16T03:57:12;16.80;91.60
5226;DHT22;2632;51.666;7.146;2022-10-16T03:59:39;16.80;91.60
5226;DHT22;2632;51.666;7.146;2022-10-16T04:02:05;16.80;91.60
5226;DHT22;2632;51.666;7.146;2022-10-16T04:04:32;16.80;91.60
5226;DHT22;2632;51.666;7.146;2022-10-16T04:06:58;16.80;91.60
5226;DHT22;2632;51.666;7.146;2022-10-16T04:09:27;16.80;91.60
5226;DHT22;2632;51.666;7.146;2022-10-16T04:11:54;16.80;91.60
5226;DHT22;2632;51.666;7.146;2022-10-16T04:14:20;16.80;91.60
5226;DHT22;2632;51.666;7.146;2022-10-16T04:16:47;16.80;91.60
5226;DHT22;2632;51.666;7.146;2022-10-16T04:19:13;16.80;91.60
5226;DHT22;2632;51.666;7.146;2022-10-16T04:21:40;16.80;91.60
5226;DHT22;2632;51.666;7.146;2022-10-16T04:24:07;16.80;91.60
5226;DHT22;2632;51.666;7.146;2022-10-16T04:26:33;16.80;91.60
5226;DHT22;2632;51.666;7.146;2022-10-16T04:29:00;16.80;91.40
5226;DHT22;2632;51.666;7.146;2022-10-16T04:31:26;16.80;91.40
5226;DHT22;2632;51.666;7.146;2022-10-16T04:33:53;16.80;91.60
5226;DHT22;2632;51.666;7.146;2022-10-16T04:36:19;16.80;91.60
5226;DHT22;2632;51.666;7.146;2022-10-16T04:38:50;16.80;91.60
5226;DHT22;2632;51.666;7.146;2022-10-16T04:41:17;16.80;91.60
5226;DHT22;2632;51.666;7.146;2022-10-16T04:43:44;16.70;91.60
5226;DHT22;2632;51.666;7.146;2022-10-16T04:46:10;16.40;91.80
5226;DHT22;2632;51.666;7.146;2022-10-16T04:48:37;16.30;92.00
5226;DHT22;2632;51.666;7.146;2022-10-16T04:51:03;16.30;92.10
5226;DHT22;2632;51.666;7.146;2022-10-16T04:53:30;16.20;92.30
5226;DHT22;2632;51.666;7.146;2022-10-16T04:55:56;16.10;92.20
5226;DHT22;2632;51.666;7.146;2022-10-16T04:58:23;16.10;92.40
5226;DHT22;2632;51.666;7.146;2022-10-16T05:00:53;16.00;92.30
5226;DHT22;2632;51.666;7.146;2022-10-16T05:03:19;16.00;92.50
5226;DHT22;2632;51.666;7.146;2022-10-16T05:05:46;16.00;92.40
5226;DHT22;2632;51.666;7.146;2022-10-16T05:08:14;16.00;92.60
5226;DHT22;2632;51.666;7.146;2022-10-16T05:10:42;15.90;92.70
5226;DHT22;2632;51.666;7.146;2022-10-16T05:13:09;15.80;92.70
5226;DHT22;2632;51.666;7.146;2022-10-16T05:15:36;15.70;92.90
5226;DHT22;2632;51.666;7.146;2022-10-16T05:18:02;15.70;92.90
5226;DHT22;2632;51.666;7.146;2022-10-16T05:20:29;15.80;93.00
5226;DHT22;2632;51.666;7.146;2022-10-16T05:22:56;15.70;93.00
5226;DHT22;2632;51.666;7.146;2022-10-16T05:25:23;15.70;93.20
5226;DHT22;2632;51.666;7.146;2022-10-16T05:27:50;15.80;93.10
5226;DHT22;2632;51.666;7.146;2022-10-16T05:30:17;15.80;93.00
5226;DHT22;2632;51.666;7.146;2022-10-16T05:32:50;15.80;93.00
5226;DHT22;2632;51.666;7.146;2022-10-16T05:35:18;15.80;93.10
5226;DHT22;2632;51.666;7.146;2022-10-16T05:37:45;15.90;92.90
5226;DHT22;2632;51.666;7.146;2022-10-16T05:40:11;16.00;92.90
5226;DHT22;2632;51.666;7.146;2022-10-16T05:42:40;16.10;92.60
5226;DHT22;2632;51.666;7.146;2022-10-16T05:45:09;16.30;92.50
5226;DHT22;2632;51.666;7.146;2022-10-16T05:47:36;16.30;92.70
5226;DHT22;2632;51.666;7.146;2022-10-16T05:50:03;16.40;92.40
5226;DHT22;2632;51.666;7.146;2022-10-16T05:52:30;16.40;92.50
5226;DHT22;2632;51.666;7.146;2022-10-16T05:54:57;16.50;92.20
5226;DHT22;2632;51.666;7.146;2022-10-16T05:57:23;16.50;92.10
5226;DHT22;2632;51.666;7.146;2022-10-16T05:59:50;16.50;92.10
5226;DHT22;2632;51.666;7.146;2022-10-16T06:02:17;16.50;92.00
5226;DHT22;2632;51.666;7.146;2022-10-16T06:04:43;16.50;92.00
5226;DHT22;2632;51.666;7.146;2022-10-16T06:07:10;16.50;91.90
5226;DHT22;2632;51.666;7.146;2022-10-16T06:09:37;16.60;91.90
5226;DHT22;2632;51.666;7.146;2022-10-16T06:12:03;16.60;91.80
5226;DHT22;2632;51.666;7.146;2022-10-16T06:14:30;16.60;92.10
5226;DHT22;2632;51.666;7.146;2022-10-16T06:16:57;16.60;91.80
5226;DHT22;2632;51.666;7.146;2022-10-16T06:19:23;16.60;91.70
5226;DHT22;2632;51.666;7.146;2022-10-16T06:21:50;16.60;91.70
5226;DHT22;2632;51.666;7.146;2022-10-16T06:24:16;16.60;91.70
5226;DHT22;2632;51.666;7.146;2022-10-16T06:26:43;16.70;91.70
5226;DHT22;2632;51.666;7.146;2022-10-16T06:29:09;16.70;91.70
5226;DHT22;2632;51.666;7.146;2022-10-16T06:31:36;16.60;91.60
5226;DHT22;2632;51.666;7.146;2022-10-16T06:34:03;16.60;91.60
5226;DHT22;2632;51.666;7.146;2022-10-16T06:36:31;16.60;91.60
5226;DHT22;2632;51.666;7.146;2022-10-16T06:38:58;16.70;91.60
5226;DHT22;2632;51.666;7.146;2022-10-16T06:41:25;16.70;91.60
5226;DHT22;2632;51.666;7.146;2022-10-16T06:43:51;16.60;91.60
5226;DHT22;2632;51.666;7.146;2022-10-16T06:46:21;16.70;91.60
5226;DHT22;2632;51.666;7.146;2022-10-16T06:48:48;16.70;91.60
5226;DHT22;2632;51.666;7.146;2022-10-16T06:51:20;16.60;91.50
5226;DHT22;2632;51.666;7.146;2022-10-16T06:53:49;16.70;91.60
5226;DHT22;2632;51.666;7.146;2022-10-16T06:56:32;16.70;91.50
5226;DHT22;2632;51.666;7.146;2022-10-16T06:58:59;16.70;91.50
5226;DHT22;2632;51.666;7.146;2022-10-16T07:01:28;16.70;91.60
5226;DHT22;2632;51.666;7.146;2022-10-16T07:03:55;16.70;91.50
5226;DHT22;2632;51.666;7.146;2022-10-16T07:06:23;16.70;91.50
5226;DHT22;2632;51.666;7.146;2022-10-16T07:08:50;16.70;91.50
5226;DHT22;2632;51.666;7.146;2022-10-16T07:11:20;16.70;91.50
5226;DHT22;2632;51.666;7.146;2022-10-16T07:13:48;16.70;91.50
5226;DHT22;2632;51.666;7.146;2022-10-16T07:16:25;16.70;91.50
5226;DHT22;2632;51.666;7.146;2022-10-16T07:18:54;16.70;91.50
5226;DHT22;2632;51.666;7.146;2022-10-16T07:21:30;16.70;91.50
5226;DHT22;2632;51.666;7.146;2022-10-16T07:24:26;16.70;91.50
5226;DHT22;2632;51.666;7.146;2022-10-16T07:27:06;16.70;91.50
5226;DHT22;2632;51.666;7.146;2022-10-16T07:29:33;16.70;91.50
5226;DHT22;2632;51.666;7.146;2022-10-16T07:31:59;16.70;91.50
5226;DHT22;2632;51.666;7.146;2022-10-16T07:34:26;16.70;91.50
5226;DHT22;2632;51.666;7.146;2022-10-16T07:36:53;16.70;91.50
5226;DHT22;2632;51.666;7.146;2022-10-16T07:39:19;16.70;91.50
5226;DHT22;2632;51.666;7.146;2022-10-16T07:41:46;16.80;91.50
5226;DHT22;2632;51.666;7.146;2022-10-16T07:44:12;16.80;91.50
5226;DHT22;2632;51.666;7.146;2022-10-16T07:46:39;16.80;91.50
5226;DHT22;2632;51.666;7.146;2022-10-16T07:49:05;16.80;91.40
5226;DHT22;2632;51.666;7.146;2022-10-16T07:51:32;16.80;91.50
5226;DHT22;2632;51.666;7.146;2022-10-16T07:53:59;16.80;91.50
5226;DHT22;2632;51.666;7.146;2022-10-16T07:56:25;16.80;91.50
5226;DHT22;2632;51.666;7.146;2022-10-16T07:58:52;16.80;91.50
5226;DHT22;2632;51.666;7.146;2022-10-16T08:01:19;16.90;91.20
5226;DHT22;2632;51.666;7.146;2022-10-16T08:03:48;16.80;91.50
5226;DHT22;2632;51.666;7.146;2022-10-16T08:06:17;16.90;91.50
5226;DHT22;2632;51.666;7.146;2022-10-16T08:08:49;16.90;91.50
5226;DHT22;2632;51.666;7.146;2022-10-16T08:11:15;16.90;91.50
5226;DHT22;2632;51.666;7.146;2022-10-16T08:13:42;16.90;91.50
5226;DHT22;2632;51.666;7.146;2022-10-16T08:16:09;16.90;91.50
5226;DHT22;2632;51.666;7.146;2022-10-16T08:18:38;16.90;91.50
5226;DHT22;2632;51.666;7.146;2022-10-16T08:21:06;16.90;91.40
5226;DHT22;2632;51.666;7.146;2022-10-16T08:23:33;17.00;91.50
5226;DHT22;2632;51.666;7.146;2022-10-16T08:26:05;17.00;91.40
5226;DHT22;2632;51.666;7.146;2022-10-16T08:31:13;17.00;91.20
5226;DHT22;2632;51.666;7.146;2022-10-16T08:33:43;17.00;91.50
5226;DHT22;2632;51.666;7.146;2022-10-16T08:36:10;17.00;91.50
5226;DHT22;2632;51.666;7.146;2022-10-16T08:38:38;17.00;91.50
5226;DHT22;2632;51.666;7.146;2022-10-16T08:44:22;17.00;91.40
5226;DHT22;2632;51.666;7.146;2022-10-16T08:47:19;17.10;91.50
5226;DHT22;2632;51.666;7.146;2022-10-16T08:50:00;17.10;91.50
5226;DHT22;2632;51.666;7.146;2022-10-16T08:52:34;17.00;91.40
5226;DHT22;2632;51.666;7.146;2022-10-16T08:55:03;17.10;91.50
5226;DHT22;2632;51.666;7.146;2022-10-16T08:57:30;17.10;91.50
5226;DHT22;2632;51.666;7.146;2022-10-16T09:00:12;17.10;91.40
5226;DHT22;2632;51.666;7.146;2022-10-16T09:02:59;17.10;91.50
5226;DHT22;2632;51.666;7.146;2022-10-16T09:11:03;17.10;91.50
5226;DHT22;2632;51.666;7.146;2022-10-16T09:13:51;17.10;91.40
5226;DHT22;2632;51.666;7.146;2022-10-16T09:19:00;17.10;91.40
5226;DHT22;2632;51.666;7.146;2022-10-16T09:21:30;17.10;91.40
5226;DHT22;2632;51.666;7.146;2022-10-16T09:24:20;17.20;91.40
5226;DHT22;2632;51.666;7.146;2022-10-16T09:26:52;17.20;91.40
5226;DHT22;2632;51.666;7.146;2022-10-16T09:29:21;17.20;91.40
5226;DHT22;2632;51.666;7.146;2022-10-16T09:31:49;17.20;91.40
5226;DHT22;2632;51.666;7.146;2022-10-16T09:34:36;17.20;91.40
5226;DHT22;2632;51.666;7.146;2022-10-16T09:37:20;17.20;91.40
5226;DHT22;2632;51.666;7.146;2022-10-16T09:39:50;17.20;91.40
5226;DHT22;2632;51.666;7.146;2022-10-16T09:42:19;17.20;91.40
5226;DHT22;2632;51.666;7.146;2022-10-16T09:44:50;17.20;91.40
5226;DHT22;2632;51.666;7.146;2022-10-16T09:47:20;17.20;91.40
5226;DHT22;2632;51.666;7.146;2022-10-16T09:52:26;17.20;91.40
5226;DHT22;2632;51.666;7.146;2022-10-16T09:57:21;17.20;91.40
5226;DHT22;2632;51.666;7.146;2022-10-16T10:00:09;17.20;91.40
5226;DHT22;2632;51.666;7.146;2022-10-16T10:02:37;17.20;91.40
5226;DHT22;2632;51.666;7.146;2022-10-16T10:05:05;17.20;91.40
5226;DHT22;2632;51.666;7.146;2022-10-16T10:07:39;17.20;91.40
5226;DHT22;2632;51.666;7.146;2022-10-16T10:10:28;17.20;91.40
5226;DHT22;2632;51.666;7.146;2022-10-16T10:12:56;17.20;91.40
5226;DHT22;2632;51.666;7.146;2022-10-16T10:15:24;17.20;91.40
5226;DHT22;2632;51.666;7.146;2022-10-16T10:17:56;17.20;91.40
5226;DHT22;2632;51.666;7.146;2022-10-16T10:22:49;17.10;91.30
5226;DHT22;2632;51.666;7.146;2022-10-16T10:25:26;17.10;91.30
5226;DHT22;2632;51.666;7.146;2022-10-16T10:28:07;17.10;91.30
5226;DHT22;2632;51.666;7.146;2022-10-16T10:33:30;17.10;91.30
5226;DHT22;2632;51.666;7.146;2022-10-16T10:36:19;17.20;91.30
5226;DHT22;2632;51.666;7.146;2022-10-16T10:47:12;17.30;91.20
5226;DHT22;2632;51.666;7.146;2022-10-16T10:52:38;17.30;91.20
5226;DHT22;2632;51.666;7.146;2022-10-16T11:06:33;17.30;91.20
5226;DHT22;2632;51.666;7.146;2022-10-16T11:09:11;17.30;91.20
5226;DHT22;2632;51.666;7.146;2022-10-16T11:11:47;17.40;91.20
5226;DHT22;2632;51.666;7.146;2022-10-16T11:14:22;17.30;91.20
5226;DHT22;2632;51.666;7.146;2022-10-16T11:16:55;17.40;91.20
5226;DHT22;2632;51.666;7.146;2022-10-16T11:24:51;17.40;91.20
5226;DHT22;2632;51.666;7.146;2022-10-16T11:27:25;17.40;91.10
5226;DHT22;2632;51.666;7.146;2022-10-16T11:29:58;17.40;91.20
5226;DHT22;2632;51.666;7.146;2022-10-16T11:32:30;17.40;91.20
5226;DHT22;2632;51.666;7.146;2022-10-16T11:35:10;17.40;91.20
5226;DHT22;2632;51.666;7.146;2022-10-16T11:37:41;17.40;91.20
5226;DHT22;2632;51.666;7.146;2022-10-16T11:40:19;17.40;91.20
5226;DHT22;2632;51.666;7.146;2022-10-16T11:43:29;17.40;91.10
5226;DHT22;2632;51.666;7.146;2022-10-16T11:46:04;17.40;91.20
5226;DHT22;2632;51.666;7.146;2022-10-16T11:52:28;17.40;91.20
5226;DHT22;2632;51.666;7.146;2022-10-16T11:55:02;17.50;91.20
5226;DHT22;2632;51.666;7.146;2022-10-16T11:57:34;17.50;91.20
5226;DHT22;2632;51.666;7.146;2022-10-16T12:00:23;17.50;91.10
5226;DHT22;2632;51.666;7.146;2022-10-16T12:03:11;17.50;91.10
5226;DHT22;2632;51.666;7.146;2022-10-16T12:05:54;17.50;91.10
5226;DHT22;2632;51.666;7.146;2022-10-16T12:08:21;17.50;91.10
5226;DHT22;2632;51.666;7.146;2022-10-16T12:10:48;17.50;91.10
5226;DHT22;2632;51.666;7.146;2022-10-16T12:13:36;17.50;91.10
5226;DHT22;2632;51.666;7.146;2022-10-16T12:18:41;17.50;91.00
5226;DHT22;2632;51.666;7.146;2022-10-16T12:21:08;17.50;91.00
5226;DHT22;2632;51.666;7.146;2022-10-16T12:23:50;17.50;91.10
5226;DHT22;2632;51.666;7.146;2022-10-16T12:26:28;17.50;91.00
5226;DHT22;2632;51.666;7.146;2022-10-16T12:28:56;17.50;91.10
5226;DHT22;2632;51.666;7.146;2022-10-16T12:31:37;17.50;91.00
5226;DHT22;2632;51.666;7.146;2022-10-16T12:34:34;17.50;91.00
5226;DHT22;2632;51.666;7.146;2022-10-16T12:37:25;17.50;91.00
5226;DHT22;2632;51.666;7.146;2022-10-16T12:39:54;17.50;91.00
5226;DHT22;2632;51.666;7.146;2022-10-16T12:42:31;17.50;91.10
5226;DHT22;2632;51.666;7.146;2022-10-16T12:45:00;17.50;91.10
5226;DHT22;2632;51.666;7.146;2022-10-16T12:49:59;17.40;91.10
5226;DHT22;2632;51.666;7.146;2022-10-16T12:55:00;17.40;91.10
5226;DHT22;2632;51.666;7.146;2022-10-16T13:00:58;17.40;91.10
5226;DHT22;2632;51.666;7.146;2022-10-16T13:09:40;17.40;91.10
5226;DHT22;2632;51.666;7.146;2022-10-16T13:12:33;17.40;91.10
5226;DHT22;2632;51.666;7.146;2022-10-16T13:15:07;17.40;91.10
5226;DHT22;2632;51.666;7.146;2022-10-16T13:17:59;17.40;91.10
5226;DHT22;2632;51.666;7.146;2022-10-16T13:20:50;17.40;91.20
5226;DHT22;2632;51.666;7.146;2022-10-16T13:23:38;17.40;91.10
5226;DHT22;2632;51.666;7.146;2022-10-16T13:26:44;17.40;91.10
5226;DHT22;2632;51.666;7.146;2022-10-16T13:29:13;17.40;91.10
5226;DHT22;2632;51.666;7.146;2022-10-16T13:31:42;17.40;91.10
5226;DHT22;2632;51.666;7.146;2022-10-16T13:34:20;17.40;91.10
5226;DHT22;2632;51.666;7.146;2022-10-16T13:36:50;17.40;91.10
5226;DHT22;2632;51.666;7.146;2022-10-16T13:39:28;17.40;91.10
5226;DHT22;2632;51.666;7.146;2022-10-16T13:42:09;17.40;91.00
5226;DHT22;2632;51.666;7.146;2022-10-16T13:44:44;17.40;91.00
5226;DHT22;2632;51.666;7.146;2022-10-16T13:47:23;17.40;91.00
5226;DHT22;2632;51.666;7.146;2022-10-16T13:50:02;17.40;91.00
5226;DHT22;2632;51.666;7.146;2022-10-16T13:52:29;17.40;91.00
5226;DHT22;2632;51.666;7.146;2022-10-16T13:54:55;17.40;91.00
5226;DHT22;2632;51.666;7.146;2022-10-16T13:57:27;17.40;91.00
5226;DHT22;2632;51.666;7.146;2022-10-16T13:59:55;17.40;91.00
5226;DHT22;2632;51.666;7.146;2022-10-16T14:04:51;17.30;91.00
5226;DHT22;2632;51.666;7.146;2022-10-16T14:07:25;17.30;91.00
5226;DHT22;2632;51.666;7.146;2022-10-16T14:09:53;17.30;91.00
5226;DHT22;2632;51.666;7.146;2022-10-16T14:12:22;17.30;91.00
5226;DHT22;2632;51.666;7.146;2022-10-16T14:14:54;17.30;91.00
5226;DHT22;2632;51.666;7.146;2022-10-16T14:19:52;17.30;91.00
5226;DHT22;2632;51.666;7.146;2022-10-16T14:22:30;17.30;91.00
5226;DHT22;2632;51.666;7.146;2022-10-16T14:24:58;17.30;91.00
5226;DHT22;2632;51.666;7.146;2022-10-16T14:27:31;17.30;91.00
5226;DHT22;2632;51.666;7.146;2022-10-16T14:30:18;17.30;91.30
5226;DHT22;2632;51.666;7.146;2022-10-16T14:33:01;17.20;91.00
5226;DHT22;2632;51.666;7.146;2022-10-16T14:35:32;17.30;91.00
5226;DHT22;2632;51.666;7.146;2022-10-16T14:38:00;17.30;91.00
5226;DHT22;2632;51.666;7.146;2022-10-16T14:40:30;17.20;91.00
5226;DHT22;2632;51.666;7.146;2022-10-16T14:42:58;17.30;91.00
5226;DHT22;2632;51.666;7.146;2022-10-16T14:45:28;17.20;91.00
5226;DHT22;2632;51.666;7.146;2022-10-16T14:47:58;17.30;91.00
5226;DHT22;2632;51.666;7.146;2022-10-16T14:50:25;17.30;91.00
5226;DHT22;2632;51.666;7.146;2022-10-16T14:52:52;17.30;91.00
5226;DHT22;2632;51.666;7.146;2022-10-16T14:55:18;17.30;90.90
5226;DHT22;2632;51.666;7.146;2022-10-16T14:57:45;17.40;90.80
5226;DHT22;2632;51.666;7.146;2022-10-16T15:00:23;17.40;91.10
5226;DHT22;2632;51.666;7.146;2022-10-16T15:02:50;17.40;90.80
5226;DHT22;2632;51.666;7.146;2022-10-16T15:05:24;17.40;90.80
5226;DHT22;2632;51.666;7.146;2022-10-16T15:07:52;17.40;90.80
5226;DHT22;2632;51.666;7.146;2022-10-16T15:10:22;17.40;90.70
5226;DHT22;2632;51.666;7.146;2022-10-16T15:12:49;17.50;90.70
5226;DHT22;2632;51.666;7.146;2022-10-16T15:17:56;17.40;90.80
5226;DHT22;2632;51.666;7.146;2022-10-16T15:20:24;17.40;90.80
5226;DHT22;2632;51.666;7.146;2022-10-16T15:22:51;17.30;90.80
5226;DHT22;2632;51.666;7.146;2022-10-16T15:28:04;17.40;90.90
5226;DHT22;2632;51.666;7.146;2022-10-16T15:30:31;17.30;90.90
5226;DHT22;2632;51.666;7.146;2022-10-16T15:32:58;17.40;90.90
5226;DHT22;2632;51.666;7.146;2022-10-16T15:35:24;17.40;90.90
5226;DHT22;2632;51.666;7.146;2022-10-16T15:37:51;17.40;90.90
5226;DHT22;2632;51.666;7.146;2022-10-16T15:40:18;17.30;90.90
5226;DHT22;2632;51.666;7.146;2022-10-16T15:42:45;17.30;90.90
5226;DHT22;2632;51.666;7.146;2022-10-16T15:45:13;17.30;90.90
5226;DHT22;2632;51.666;7.146;2022-10-16T15:47:41;17.30;90.90
5226;DHT22;2632;51.666;7.146;2022-10-16T15:50:13;17.30;90.90
5226;DHT22;2632;51.666;7.146;2022-10-16T15:52:40;17.30;90.90
5226;DHT22;2632;51.666;7.146;2022-10-16T15:55:08;17.30;90.90
5226;DHT22;2632;51.666;7.146;2022-10-16T15:57:36;17.30;90.90
5226;DHT22;2632;51.666;7.146;2022-10-16T16:00:06;17.30;90.90
5226;DHT22;2632;51.666;7.146;2022-10-16T16:02:36;17.30;90.90
5226;DHT22;2632;51.666;7.146;2022-10-16T16:05:03;17.30;90.90
5226;DHT22;2632;51.666;7.146;2022-10-16T16:07:39;17.30;90.90
5226;DHT22;2632;51.666;7.146;2022-10-16T16:10:09;17.30;91.40
5226;DHT22;2632;51.666;7.146;2022-10-16T16:12:36;17.30;92.50
5226;DHT22;2632;51.666;7.146;2022-10-16T16:15:05;17.20;92.60
5226;DHT22;2632;51.666;7.146;2022-10-16T16:17:33;17.20;92.90
5226;DHT22;2632;51.666;7.146;2022-10-16T16:20:00;17.20;93.10
5226;DHT22;2632;51.666;7.146;2022-10-16T16:22:27;17.20;93.20
5226;DHT22;2632;51.666;7.146;2022-10-16T16:24:54;17.20;92.80
5226;DHT22;2632;51.666;7.146;2022-10-16T16:27:21;17.10;93.20
5226;DHT22;2632;51.666;7.146;2022-10-16T16:29:47;17.10;93.20
5226;DHT22;2632;51.666;7.146;2022-10-16T16:32:14;17.00;93.40
5226;DHT22;2632;51.666;7.146;2022-10-16T16:34:40;17.00;93.60
5226;DHT22;2632;51.666;7.146;2022-10-16T16:37:07;17.00;93.70
5226;DHT22;2632;51.666;7.146;2022-10-16T16:39:34;17.00;93.80
5226;DHT22;2632;51.666;7.146;2022-10-16T16:42:01;17.00;93.80
5226;DHT22;2632;51.666;7.146;2022-10-16T16:44:30;16.90;93.90
5226;DHT22;2632;51.666;7.146;2022-10-16T16:46:57;16.90;93.90
5226;DHT22;2632;51.666;7.146;2022-10-16T16:49:24;17.00;93.50
5226;DHT22;2632;51.666;7.146;2022-10-16T16:51:52;17.10;93.10
5226;DHT22;2632;51.666;7.146;2022-10-16T16:54:18;17.20;92.90
5226;DHT22;2632;51.666;7.146;2022-10-16T16:56:45;17.20;92.70
5226;DHT22;2632;51.666;7.146;2022-10-16T16:59:14;17.20;92.60
5226;DHT22;2632;51.666;7.146;2022-10-16T17:01:41;17.30;92.60
5226;DHT22;2632;51.666;7.146;2022-10-16T17:04:08;17.20;92.40
5226;DHT22;2632;51.666;7.146;2022-10-16T17:06:34;17.30;92.40
5226;DHT22;2632;51.666;7.146;2022-10-16T17:09:01;17.40;92.30
5226;DHT22;2632;51.666;7.146;2022-10-16T17:11:29;17.40;92.20
5226;DHT22;2632;51.666;7.146;2022-10-16T17:13:57;17.40;92.10
5226;DHT22;2632;51.666;7.146;2022-10-16T17:16:28;17.50;92.00
5226;DHT22;2632;51.666;7.146;2022-10-16T17:18:58;17.50;92.00
5226;DHT22;2632;51.666;7.146;2022-10-16T17:21:25;17.50;91.90
5226;DHT22;2632;51.666;7.146;2022-10-16T17:23:53;17.50;91.80
5226;DHT22;2632;51.666;7.146;2022-10-16T17:26:20;17.60;91.80
5226;DHT22;2632;51.666;7.146;2022-10-16T17:28:51;17.60;91.70
5226;DHT22;2632;51.666;7.146;2022-10-16T17:31:22;17.60;91.70
5226;DHT22;2632;51.666;7.146;2022-10-16T17:33:49;17.60;92.10
5226;DHT22;2632;51.666;7.146;2022-10-16T17:36:18;17.60;91.90
5226;DHT22;2632;51.666;7.146;2022-10-16T17:38:45;17.60;91.70
5226;DHT22;2632;51.666;7.146;2022-10-16T17:41:17;17.60;91.90
5226;DHT22;2632;51.666;7.146;2022-10-16T17:43:44;17.60;91.50
5226;DHT22;2632;51.666;7.146;2022-10-16T17:46:13;17.70;91.50
5226;DHT22;2632;51.666;7.146;2022-10-16T17:48:47;17.70;91.50
5226;DHT22;2632;51.666;7.146;2022-10-16T17:51:17;17.70;91.40
5226;DHT22;2632;51.666;7.146;2022-10-16T17:53:47;17.70;91.40
5226;DHT22;2632;51.666;7.146;2022-10-16T17:56:14;17.70;91.40